KMGJ/MGJ METAR and TAF weather

Enter ICAO airport designator
Station Type Date Time Source
KMGJ METAR 2018/12/12 10:54 UTC NOAA

KMGJ 121054Z AUTO 30012KT 10SM CLR M01/M06 A3001 RMK AO2 SLP166 T10061056


Station Type Date Time Source
KMGJ Decoded METAR 2018/12/12 10:54 UTC NOAA

MONTGOMERY ORANGE CO AIRPORT, NY, United States (KMGJ) 41-31N 074-16W 108M
Dec 12, 2018 - 05:54 AM EST / 2018.12.12 1054 UTC
Wind: from the WNW (300 degrees) at 14 MPH (12 KT):0
Visibility: 10 mile(s):0
Sky conditions: clear
Temperature: 30.9 F (-0.6 C)
Windchill: 21 F (-6 C):1
Dew Point: 21.9 F (-5.6 C)
Relative Humidity: 68%
Pressure (altimeter): 30.01 in. Hg (1016 hPa)
ob: KMGJ 121054Z AUTO 30012KT 10SM CLR M01/M06 A3001 RMK AO2 SLP166 T10061056
cycle: 11

Station Type Date Time Source
KMGJ TAF UTC NOAA

Error!


Example: see airport list